Nissos Mykonos — SYJZ — position and weather

sailwx.info

Track history (hours):
 
Tides and Currents Weather Stations Pressure Air Temp Water Temp Dewpoint Dewpoint Depression Visibility Wind Speed Wind Dir Waves Ship Positions

Nissos Mykonos

Last reported at 2014-Oct-30 22:34 UTC. Time now 2014-Oct-30 22:56 UTC.
Position N 37°57' E 023°38'.

Length 141 m; draft 5.2 m.

Type: Passenger vessel. MMSI: 240389000.

Date/timePositionNaut miles runAvg speedWind from/ knotsBaromVisibWave heightAir tempDewpointWater temp
2014-Oct-30 22:34N 37°57' E 023°38'0 0.0
2014-Oct-30 21:34N 37°57' E 023°38'1313.4
2014-Oct-30 20:33N 37°44' E 023°44'2421.1
2014-Oct-30 19:26N 37°33' E 024°10'1921.4
2014-Oct-30 18:32N 37°31' E 024°35'1919.1
2014-Oct-30 17:33N 37°27' E 024°57'1413.9
2014-Oct-30 16:33N 37°28' E 025°15'1111.4
2014-Oct-30 15:33N 37°31' E 025°29'151 8.8
2014-Oct-29 22:28N 40°00' E 024°55'1920.8
2014-Oct-29 21:33N 40°17' E 024°43'2121.5
2014-Oct-29 20:34N 40°36' E 024°30'2120.6
2014-Oct-29 19:33N 40°56' E 024°24'0 0.3
2014-Oct-29 18:33N 40°56' E 024°25'0 0.0
2014-Oct-29 17:33N 40°56' E 024°25'0 0.0
2014-Oct-29 16:33N 40°56' E 024°25'1110.9
2014-Oct-29 15:34N 40°45' E 024°27'2120.6
2014-Oct-29 14:33N 40°26' E 024°37'2221.2
2014-Oct-29 13:30N 40°06' E 024°51'157 9.2
2014-Oct-28 20:23N 37°33' E 025°35'1315.9
2014-Oct-28 19:33N 37°28' E 025°19'1716.8
2014-Oct-28 18:33N 37°26' E 024°59'8 7.6
2014-Oct-28 17:32N 37°32' E 024°52'2221.4
2014-Oct-28 16:30N 37°31' E 024°23'3920.3
2014-Oct-28 14:33N 37°48' E 023°38'9 9.1
2014-Oct-28 13:33N 37°57' E 023°38'0 0.0
2014-Oct-28 12:33N 37°57' E 023°38'0 0.0
2014-Oct-28 11:33N 37°57' E 023°38'0 0.0
2014-Oct-28 10:33N 37°57' E 023°38'0 0.0
2014-Oct-28 09:33N 37°57' E 023°38'0 0.0
2014-Oct-28 08:33N 37°57' E 023°38'0 0.0
2014-Oct-28 07:33N 37°57' E 023°38'0 0.0
2014-Oct-28 06:33N 37°57' E 023°38'0 0.0
2014-Oct-28 05:33N 37°57' E 023°38'0 0.0
2014-Oct-28 04:33N 37°57' E 023°38'0 0.0
2014-Oct-28 03:33N 37°57' E 023°38'0 0.0
2014-Oct-28 02:33N 37°57' E 023°38'0 0.0
2014-Oct-28 01:33N 37°57' E 023°38'0 0.0
2014-Oct-28 00:33N 37°57' E 023°38'0 0.0
2014-Oct-27 23:33N 37°57' E 023°38'0 0.0
2014-Oct-27 22:33N 37°57' E 023°38'0 0.0
2014-Oct-27 21:33N 37°57' E 023°38'0 0.0
2014-Oct-27 20:33N 37°57' E 023°38'0 0.0
2014-Oct-27 19:33N 37°57' E 023°38'0 0.0
2014-Oct-27 18:33N 37°57' E 023°38'0 0.0
2014-Oct-27 17:33N 37°57' E 023°38'0 0.0
2014-Oct-27 16:33N 37°57' E 023°38'0 0.0
2014-Oct-27 15:33N 37°57' E 023°38'0 0.0
2014-Oct-27 14:33N 37°57' E 023°38'0 0.0
2014-Oct-27 13:33N 37°57' E 023°38'0 0.0
2014-Oct-27 12:33N 37°57' E 023°38'0 0.0
2014-Oct-27 11:34N 37°57' E 023°38'0 0.0
2014-Oct-27 10:33N 37°57' E 023°38'0 0.0
2014-Oct-27 09:33N 37°57' E 023°38'0 0.0
2014-Oct-27 08:33N 37°57' E 023°38'0 0.0
2014-Oct-27 07:33N 37°57' E 023°38'0 0.0
2014-Oct-27 06:33N 37°57' E 023°38'0 0.0
2014-Oct-27 05:33N 37°57' E 023°38'0 0.0
2014-Oct-27 04:33N 37°57' E 023°38'0 0.0
2014-Oct-27 03:33N 37°57' E 023°38'0 0.0
2014-Oct-27 02:33N 37°57' E 023°38'0 0.0
2014-Oct-26 23:32N 37°57' E 023°38'0 0.0
2014-Oct-26 22:33N 37°57' E 023°38'0 0.0
2014-Oct-26 21:33N 37°57' E 023°38'1514.9
2014-Oct-26 20:33N 37°43' E 023°45'2121.2
2014-Oct-26 19:33N 37°33' E 024°09'2120.8
2014-Oct-26 18:32N 37°34' E 024°35'1918.6
2014-Oct-26 17:31N 37°26' E 024°57'1515.5
2014-Oct-26 16:33N 37°29' E 025°16'1212.1
2014-Oct-26 15:33N 37°37' E 025°26'2220.8
2014-Oct-26 14:29N 37°38' E 025°54'18810.5
2014-Oct-25 20:32N 40°35' E 024°33'2021.1
2014-Oct-25 19:34N 40°54' E 024°24'2 1.6
2014-Oct-25 18:33N 40°56' E 024°25'1514.9
2014-Oct-25 17:33N 40°41' E 024°28'2020.2
2014-Oct-25 16:34N 40°23' E 024°39'175 8.6
2014-Oct-24 20:14N 37°33' E 025°34'1420.0
2014-Oct-24 19:33N 37°28' E 025°18'1 1.0
2014-Oct-24 18:33N 37°28' E 025°19'1817.4
2014-Oct-24 17:31N 37°26' E 024°57'1616.3
2014-Oct-24 16:33N 37°31' E 024°38'2421.0
2014-Oct-24 15:26N 37°23' E 024°09'2719.8
2014-Oct-24 14:04N 37°40' E 023°43'1019.7
2014-Oct-24 13:33N 37°49' E 023°38'7 7.3
2014-Oct-24 12:33N 37°57' E 023°38'0 0.0
2014-Oct-24 11:33N 37°57' E 023°38'0 0.0
2014-Oct-24 10:33N 37°57' E 023°38'0 0.0
2014-Oct-24 09:33N 37°57' E 023°38'0 0.0
2014-Oct-24 08:33N 37°57' E 023°38'0 0.0
2014-Oct-24 05:33N 37°57' E 023°38'0 0.0
2014-Oct-24 04:33N 37°57' E 023°38'0 0.0
2014-Oct-24 03:33N 37°57' E 023°38'0 0.0
2014-Oct-24 02:33N 37°57' E 023°38'0 0.0
2014-Oct-24 01:33N 37°57' E 023°38'0 0.0
2014-Oct-24 00:33N 37°57' E 023°38'0 0.0
2014-Oct-23 23:33N 37°57' E 023°38'0 0.0
2014-Oct-23 22:33N 37°57' E 023°38'0 0.0
2014-Oct-23 21:33N 37°57' E 023°38'0 0.0
2014-Oct-23 20:33N 37°57' E 023°38'1716.8
2014-Oct-23 19:32N 37°41' E 023°47'3020.7
2014-Oct-23 18:04N 37°31' E 024°23'1121.4
2014-Oct-23 17:33N 37°31' E 024°37'1614.8
2014-Oct-23 16:28N 37°26' E 024°57'1819.5
2014-Oct-23 15:33N 37°28' E 025°19'1212.0
2014-Oct-23 14:34N 37°30' E 025°33'2420.6
2014-Oct-23 13:25N 37°38' E 026°02'17110.1
2014-Oct-22 20:33N 40°17' E 024°43'2121.4
2014-Oct-22 19:33N 40°36' E 024°30'2020.1
2014-Oct-22 18:33N 40°56' E 024°24'0 0.3
2014-Oct-22 17:33N 40°56' E 024°25'0 0.0
2014-Oct-22 16:33N 40°56' E 024°25'0 0.0
2014-Oct-22 15:33N 40°56' E 024°25'1414.5
2014-Oct-22 14:33N 40°42' E 024°28'2120.8
2014-Oct-22 13:33N 40°22' E 024°39'2520.9
2014-Oct-22 12:21N 40°01' E 024°55'150 8.8
2014-Oct-21 19:14N 37°33' E 025°32'1217.3
2014-Oct-21 18:33N 37°28' E 025°19'1615.5
2014-Oct-21 17:34N 37°26' E 024°59'8 8.5
2014-Oct-21 16:34N 37°32' E 024°51'2221.5
2014-Oct-21 15:31N 37°31' E 024°22'2721.3
2014-Oct-21 14:15N 37°38' E 023°49'1420.6
2014-Oct-21 13:34N 37°49' E 023°38'8 8.0
2014-Oct-21 12:33N 37°57' E 023°38'0 0.0
2014-Oct-21 11:33N 37°57' E 023°38'0 0.0
2014-Oct-21 10:33N 37°57' E 023°38'0 0.0
2014-Oct-21 09:33N 37°57' E 023°38'0 0.0
2014-Oct-21 08:33N 37°57' E 023°38'1 0.6
2014-Oct-21 07:33N 37°56' E 023°38'1212.5
2014-Oct-21 06:33N 37°44' E 023°37'13 5.4
2014-Oct-21 04:12N 37°57' E 023°38'0 0.0
2014-Oct-21 03:34N 37°57' E 023°38'0 0.0
2014-Oct-21 02:33N 37°57' E 023°38'0 0.0
2014-Oct-21 01:33N 37°57' E 023°38'0 0.0
2014-Oct-21 00:34N 37°57' E 023°38'0 0.0
2014-Oct-20 23:34N 37°57' E 023°38'0 0.0
2014-Oct-20 22:34N 37°57' E 023°38'  
Track history (hours):
 
Tides and Currents Weather Stations Pressure Air Temp Water Temp Dewpoint Dewpoint Depression Visibility Wind Speed Wind Dir Waves Ship Positions

Nissos Mykonos

Last reported at 2014-Oct-30 22:34 UTC. Time now 2014-Oct-30 22:56 UTC.
Position N 37°57' E 023°38'.

Length 141 m; draft 5.2 m.

Type: Passenger vessel. MMSI: 240389000.

Date/timePositionNaut miles runAvg speedWind from/ knotsBaromVisibWave heightAir tempDewpointWater temp
2014-Oct-30 22:34N 37°57' E 023°38'0 0.0
2014-Oct-30 21:34N 37°57' E 023°38'1313.4
2014-Oct-30 20:33N 37°44' E 023°44'2421.1
2014-Oct-30 19:26N 37°33' E 024°10'1921.4
2014-Oct-30 18:32N 37°31' E 024°35'1919.1
2014-Oct-30 17:33N 37°27' E 024°57'1413.9
2014-Oct-30 16:33N 37°28' E 025°15'1111.4
2014-Oct-30 15:33N 37°31' E 025°29'151 8.8
2014-Oct-29 22:28N 40°00' E 024°55'1920.8
2014-Oct-29 21:33N 40°17' E 024°43'2121.5
2014-Oct-29 20:34N 40°36' E 024°30'2120.6
2014-Oct-29 19:33N 40°56' E 024°24'0 0.3
2014-Oct-29 18:33N 40°56' E 024°25'0 0.0
2014-Oct-29 17:33N 40°56' E 024°25'0 0.0
2014-Oct-29 16:33N 40°56' E 024°25'1110.9
2014-Oct-29 15:34N 40°45' E 024°27'2120.6
2014-Oct-29 14:33N 40°26' E 024°37'2221.2
2014-Oct-29 13:30N 40°06' E 024°51'157 9.2
2014-Oct-28 20:23N 37°33' E 025°35'1315.9
2014-Oct-28 19:33N 37°28' E 025°19'1716.8
2014-Oct-28 18:33N 37°26' E 024°59'8 7.6
2014-Oct-28 17:32N 37°32' E 024°52'2221.4
2014-Oct-28 16:30N 37°31' E 024°23'3920.3
2014-Oct-28 14:33N 37°48' E 023°38'9 9.1
2014-Oct-28 13:33N 37°57' E 023°38'0 0.0
2014-Oct-28 12:33N 37°57' E 023°38'0 0.0
2014-Oct-28 11:33N 37°57' E 023°38'0 0.0
2014-Oct-28 10:33N 37°57' E 023°38'0 0.0
2014-Oct-28 09:33N 37°57' E 023°38'0 0.0
2014-Oct-28 08:33N 37°57' E 023°38'0 0.0
2014-Oct-28 07:33N 37°57' E 023°38'0 0.0
2014-Oct-28 06:33N 37°57' E 023°38'0 0.0
2014-Oct-28 05:33N 37°57' E 023°38'0 0.0
2014-Oct-28 04:33N 37°57' E 023°38'0 0.0
2014-Oct-28 03:33N 37°57' E 023°38'0 0.0
2014-Oct-28 02:33N 37°57' E 023°38'0 0.0
2014-Oct-28 01:33N 37°57' E 023°38'0 0.0
2014-Oct-28 00:33N 37°57' E 023°38'0 0.0
2014-Oct-27 23:33N 37°57' E 023°38'0 0.0
2014-Oct-27 22:33N 37°57' E 023°38'0 0.0
2014-Oct-27 21:33N 37°57' E 023°38'0 0.0
2014-Oct-27 20:33N 37°57' E 023°38'0 0.0
2014-Oct-27 19:33N 37°57' E 023°38'0 0.0
2014-Oct-27 18:33N 37°57' E 023°38'0 0.0
2014-Oct-27 17:33N 37°57' E 023°38'0 0.0
2014-Oct-27 16:33N 37°57' E 023°38'0 0.0
2014-Oct-27 15:33N 37°57' E 023°38'0 0.0
2014-Oct-27 14:33N 37°57' E 023°38'0 0.0
2014-Oct-27 13:33N 37°57' E 023°38'0 0.0
2014-Oct-27 12:33N 37°57' E 023°38'0 0.0
2014-Oct-27 11:34N 37°57' E 023°38'0 0.0
2014-Oct-27 10:33N 37°57' E 023°38'0 0.0
2014-Oct-27 09:33N 37°57' E 023°38'0 0.0
2014-Oct-27 08:33N 37°57' E 023°38'0 0.0
2014-Oct-27 07:33N 37°57' E 023°38'0 0.0
2014-Oct-27 06:33N 37°57' E 023°38'0 0.0
2014-Oct-27 05:33N 37°57' E 023°38'0 0.0
2014-Oct-27 04:33N 37°57' E 023°38'0 0.0
2014-Oct-27 03:33N 37°57' E 023°38'0 0.0
2014-Oct-27 02:33N 37°57' E 023°38'0 0.0
2014-Oct-26 23:32N 37°57' E 023°38'0 0.0
2014-Oct-26 22:33N 37°57' E 023°38'0 0.0
2014-Oct-26 21:33N 37°57' E 023°38'1514.9
2014-Oct-26 20:33N 37°43' E 023°45'2121.2
2014-Oct-26 19:33N 37°33' E 024°09'2120.8
2014-Oct-26 18:32N 37°34' E 024°35'1918.6
2014-Oct-26 17:31N 37°26' E 024°57'1515.5
2014-Oct-26 16:33N 37°29' E 025°16'1212.1
2014-Oct-26 15:33N 37°37' E 025°26'2220.8
2014-Oct-26 14:29N 37°38' E 025°54'18810.5
2014-Oct-25 20:32N 40°35' E 024°33'2021.1
2014-Oct-25 19:34N 40°54' E 024°24'2 1.6
2014-Oct-25 18:33N 40°56' E 024°25'1514.9
2014-Oct-25 17:33N 40°41' E 024°28'2020.2
2014-Oct-25 16:34N 40°23' E 024°39'175 8.6
2014-Oct-24 20:14N 37°33' E 025°34'1420.0
2014-Oct-24 19:33N 37°28' E 025°18'1 1.0
2014-Oct-24 18:33N 37°28' E 025°19'1817.4
2014-Oct-24 17:31N 37°26' E 024°57'1616.3
2014-Oct-24 16:33N 37°31' E 024°38'2421.0
2014-Oct-24 15:26N 37°23' E 024°09'2719.8
2014-Oct-24 14:04N 37°40' E 023°43'1019.7
2014-Oct-24 13:33N 37°49' E 023°38'7 7.3
2014-Oct-24 12:33N 37°57' E 023°38'0 0.0
2014-Oct-24 11:33N 37°57' E 023°38'0 0.0
2014-Oct-24 10:33N 37°57' E 023°38'0 0.0
2014-Oct-24 09:33N 37°57' E 023°38'0 0.0
2014-Oct-24 08:33N 37°57' E 023°38'0 0.0
2014-Oct-24 05:33N 37°57' E 023°38'0 0.0
2014-Oct-24 04:33N 37°57' E 023°38'0 0.0
2014-Oct-24 03:33N 37°57' E 023°38'0 0.0
2014-Oct-24 02:33N 37°57' E 023°38'0 0.0
2014-Oct-24 01:33N 37°57' E 023°38'0 0.0
2014-Oct-24 00:33N 37°57' E 023°38'0 0.0
2014-Oct-23 23:33N 37°57' E 023°38'0 0.0
2014-Oct-23 22:33N 37°57' E 023°38'0 0.0
2014-Oct-23 21:33N 37°57' E 023°38'0 0.0
2014-Oct-23 20:33N 37°57' E 023°38'1716.8
2014-Oct-23 19:32N 37°41' E 023°47'3020.7
2014-Oct-23 18:04N 37°31' E 024°23'1121.4
2014-Oct-23 17:33N 37°31' E 024°37'1614.8
2014-Oct-23 16:28N 37°26' E 024°57'1819.5
2014-Oct-23 15:33N 37°28' E 025°19'1212.0
2014-Oct-23 14:34N 37°30' E 025°33'2420.6
2014-Oct-23 13:25N 37°38' E 026°02'17110.1
2014-Oct-22 20:33N 40°17' E 024°43'2121.4
2014-Oct-22 19:33N 40°36' E 024°30'2020.1
2014-Oct-22 18:33N 40°56' E 024°24'0 0.3
2014-Oct-22 17:33N 40°56' E 024°25'0 0.0
2014-Oct-22 16:33N 40°56' E 024°25'0 0.0
2014-Oct-22 15:33N 40°56' E 024°25'1414.5
2014-Oct-22 14:33N 40°42' E 024°28'2120.8
2014-Oct-22 13:33N 40°22' E 024°39'2520.9
2014-Oct-22 12:21N 40°01' E 024°55'150 8.8
2014-Oct-21 19:14N 37°33' E 025°32'1217.3
2014-Oct-21 18:33N 37°28' E 025°19'1615.5
2014-Oct-21 17:34N 37°26' E 024°59'8 8.5
2014-Oct-21 16:34N 37°32' E 024°51'2221.5
2014-Oct-21 15:31N 37°31' E 024°22'2721.3
2014-Oct-21 14:15N 37°38' E 023°49'1420.6
2014-Oct-21 13:34N 37°49' E 023°38'8 8.0
2014-Oct-21 12:33N 37°57' E 023°38'0 0.0
2014-Oct-21 11:33N 37°57' E 023°38'0 0.0
2014-Oct-21 10:33N 37°57' E 023°38'0 0.0
2014-Oct-21 09:33N 37°57' E 023°38'0 0.0
2014-Oct-21 08:33N 37°57' E 023°38'1 0.6
2014-Oct-21 07:33N 37°56' E 023°38'1212.5
2014-Oct-21 06:33N 37°44' E 023°37'13 5.4
2014-Oct-21 04:12N 37°57' E 023°38'0 0.0
2014-Oct-21 03:34N 37°57' E 023°38'0 0.0
2014-Oct-21 02:33N 37°57' E 023°38'0 0.0
2014-Oct-21 01:33N 37°57' E 023°38'0 0.0
2014-Oct-21 00:34N 37°57' E 023°38'0 0.0
2014-Oct-20 23:34N 37°57' E 023°38'0 0.0
2014-Oct-20 22:34N 37°57' E 023°38'  

Dump ship's entire track history